Time;durP1;ratioP1;P1;durP2;ratioP2;P2;SDS_P1;SDS_P2;PMS_P1;PMS_P2;Temp;Humidity;BMP_temperature;BMP_pressure;BME280_temperature;BME280_humidity;BME280_pressure;Samples;Min_cycle;Max_cycle;Signal;HPM_P1;HPM_P2
2021/01/11 00:00:42;;;;;;;54.00;24.90;;;;;;;0.39;68.10;99494.84;2163146;82;21119;-81
2021/01/11 00:03:44;;;;;;;56.58;24.27;;;;;;;0.39;68.25;99492.66;2163105;82;21169;-80
2021/01/11 00:06:49;;;;;;;52.37;23.70;;;;;;;0.34;68.34;99491.09;2163375;82;21135;-81
2021/01/11 00:09:50;;;;;;;58.70;24.70;;;;;;;0.37;68.57;99492.56;2163157;82;21147;-80
2021/01/11 00:12:51;;;;;;;60.17;24.60;;;;;;;0.39;68.80;99488.41;2163154;82;21401;-82
2021/01/11 00:15:52;;;;;;;47.37;22.50;;;;;;;0.43;68.73;99490.77;2163380;82;21107;-82
2021/01/11 00:18:53;;;;;;;47.03;23.17;;;;;;;0.44;68.61;99493.83;2162630;82;21410;-80
2021/01/11 00:21:54;;;;;;;52.33;23.47;;;;;;;0.41;68.54;99494.53;2163155;82;21155;-81
2021/01/11 00:24:55;;;;;;;53.40;24.03;;;;;;;0.36;68.56;99492.08;2162844;82;21170;-81
2021/01/11 00:27:57;;;;;;;52.07;25.23;;;;;;;0.29;68.84;99484.39;2162514;82;21163;-81
2021/01/11 00:30:58;;;;;;;53.97;24.33;;;;;;;0.29;68.90;99486.07;2162514;82;21268;-79
2021/01/11 00:33:59;;;;;;;48.63;23.90;;;;;;;0.25;68.83;99483.71;2163882;82;21251;-82
2021/01/11 00:37:00;;;;;;;47.83;24.63;;;;;;;0.25;68.98;99481.53;2162202;82;21253;-81
2021/01/11 00:40:01;;;;;;;53.43;25.07;;;;;;;0.24;69.00;99488.75;2162919;82;21139;-82
2021/01/11 00:43:02;;;;;;;53.40;26.07;;;;;;;0.23;68.92;99494.67;2163032;82;21111;-82
2021/01/11 00:46:03;;;;;;;52.43;26.63;;;;;;;0.22;68.95;99492.91;2162757;82;21174;-80
2021/01/11 00:49:04;;;;;;;55.60;27.17;;;;;;;0.22;68.85;99487.77;2162903;82;21131;-81
2021/01/11 00:52:05;;;;;;;57.87;27.37;;;;;;;0.22;68.91;99492.91;2162920;82;21103;-80
2021/01/11 00:55:06;;;;;;;58.73;27.47;;;;;;;0.21;68.71;99494.58;2163265;82;21380;-81
2021/01/11 00:58:07;;;;;;;63.10;27.87;;;;;;;0.17;68.70;99496.47;2163051;82;21158;-81
2021/01/11 01:01:11;;;;;;;54.60;27.93;;;;;;;0.17;68.69;99500.71;2162600;82;21130;-82
2021/01/11 01:04:12;;;;;;;64.03;28.80;;;;;;;0.18;68.68;99503.77;2162387;82;21297;-81
2021/01/11 01:07:13;;;;;;;56.27;27.87;;;;;;;0.17;68.55;99499.03;2162815;82;21162;-81
2021/01/11 01:10:14;;;;;;;65.87;30.37;;;;;;;0.18;68.49;99505.05;2162441;82;21261;-81
2021/01/11 01:13:16;;;;;;;58.90;29.87;;;;;;;0.16;68.46;99505.36;2162821;82;21544;-80
2021/01/11 01:16:17;;;;;;;62.57;30.13;;;;;;;0.16;68.36;99497.66;2162595;82;21271;-80
2021/01/11 01:19:21;;;;;;;63.77;31.27;;;;;;;0.11;68.08;99496.48;2162573;82;21567;-81
2021/01/11 01:22:22;;;;;;;64.87;30.33;;;;;;;0.04;68.05;99491.35;2162089;82;21265;-80
2021/01/11 01:25:23;;;;;;;62.83;29.63;;;;;;;-0.02;68.11;99495.67;2162766;82;21309;-80
2021/01/11 01:28:27;;;;;;;59.03;28.77;;;;;;;-0.03;68.27;99496.85;2162920;82;21277;-80
2021/01/11 01:31:28;;;;;;;59.00;29.43;;;;;;;-0.07;68.31;99484.22;2160562;82;21158;-81
2021/01/11 01:34:29;;;;;;;62.67;29.60;;;;;;;-0.11;68.40;99481.37;2153274;82;21154;-81
2021/01/11 01:37:30;;;;;;;64.57;30.67;;;;;;;-0.15;68.51;99485.81;2153257;83;21409;-81
2021/01/11 01:40:34;;;;;;;65.90;29.63;;;;;;;-0.19;68.63;99477.42;2152841;82;21147;-80
2021/01/11 01:43:35;;;;;;;57.27;27.67;;;;;;;-0.18;68.76;99474.06;2153096;83;21135;-82
2021/01/11 01:46:36;;;;;;;60.70;27.23;;;;;;;-0.21;68.66;99473.88;2153000;83;21123;-82
2021/01/11 01:49:37;;;;;;;58.80;28.83;;;;;;;-0.23;68.66;99476.73;2153072;83;21131;-82
2021/01/11 01:52:40;;;;;;;65.67;31.23;;;;;;;-0.29;68.71;99468.25;2152954;82;21135;-81
2021/01/11 01:55:42;;;;;;;65.80;32.03;;;;;;;-0.30;68.85;99473.28;2152899;83;21139;-81
2021/01/11 01:58:43;;;;;;;67.33;32.53;;;;;;;-0.31;68.95;99473.68;2153212;82;21437;-82
2021/01/11 02:01:44;;;;;;;59.57;30.57;;;;;;;-0.27;68.91;99478.22;2153371;83;21142;-82
2021/01/11 02:04:45;;;;;;;60.67;30.97;;;;;;;-0.23;68.76;99472.49;2153191;82;21177;-82
2021/01/11 02:07:46;;;;;;;63.33;30.30;;;;;;;-0.22;68.52;99464.40;2153321;82;21115;-81
2021/01/11 02:10:47;;;;;;;71.73;32.70;;;;;;;-0.24;68.56;99465.59;2153521;82;21127;-81
2021/01/11 02:13:48;;;;;;;79.90;34.90;;;;;;;-0.21;68.65;99475.16;2151983;83;21250;-82
2021/01/11 02:16:49;;;;;;;79.30;35.47;;;;;;;-0.20;68.69;99449.98;2152566;83;21083;-81
2021/01/11 02:19:50;;;;;;;98.10;43.50;;;;;;;-0.19;68.71;99450.48;2153125;82;21103;-81
2021/01/11 02:22:54;;;;;;;83.97;37.03;;;;;;;-0.21;68.63;99447.82;2153631;82;21166;-83
2021/01/11 02:25:55;;;;;;;74.83;36.60;;;;;;;-0.19;68.59;99444.95;2153487;82;21159;-82
2021/01/11 02:28:59;;;;;;;79.10;36.50;;;;;;;-0.18;68.53;99448.02;2153242;83;21361;-82
2021/01/11 02:32:00;;;;;;;77.63;34.77;;;;;;;-0.19;68.33;99443.67;2158738;82;21555;-81
2021/01/11 02:35:01;;;;;;;84.03;39.37;;;;;;;-0.17;68.11;99442.09;2167486;82;21369;-81
2021/01/11 02:38:02;;;;;;;79.27;36.90;;;;;;;-0.17;68.00;99443.38;2163681;82;21417;-81
2021/01/11 02:41:06;;;;;;;75.97;36.50;;;;;;;-0.16;68.25;99437.45;2163281;82;21099;-81
2021/01/11 02:44:07;;;;;;;83.53;37.50;;;;;;;-0.14;68.50;99433.30;2163274;82;21178;-81
2021/01/11 02:47:08;;;;;;;84.10;38.80;;;;;;;-0.12;68.47;99434.68;2163280;82;21162;-81
2021/01/11 02:50:09;;;;;;;77.77;36.43;;;;;;;-0.12;68.23;99430.83;2162564;82;21155;-81
2021/01/11 02:53:10;;;;;;;81.87;37.93;;;;;;;-0.14;68.16;99432.02;2162028;82;21929;-81
2021/01/11 02:56:11;;;;;;;89.70;38.33;;;;;;;-0.17;68.23;99430.55;2162456;82;21123;-80
2021/01/11 02:59:12;;;;;;;87.00;41.17;;;;;;;-0.15;68.54;99433.20;2163075;82;21091;-81
2021/01/11 03:02:13;;;;;;;89.33;40.70;;;;;;;-0.14;68.52;99433.30;2162609;82;21146;-81
2021/01/11 03:05:14;;;;;;;86.43;41.27;;;;;;;-0.12;68.31;99429.55;2162838;82;21304;-81
2021/01/11 03:08:15;;;;;;;98.17;42.00;;;;;;;-0.13;68.35;99436.36;2163056;82;21142;-81
2021/01/11 03:11:17;;;;;;;90.50;42.50;;;;;;;-0.12;68.22;99429.16;2162882;82;21146;-80
2021/01/11 03:14:18;;;;;;;88.90;41.10;;;;;;;-0.14;68.21;99428.17;2162788;82;21131;-81
2021/01/11 03:17:19;;;;;;;96.87;43.57;;;;;;;-0.14;68.18;99424.72;2163028;82;21151;-82
2021/01/11 03:20:20;;;;;;;94.93;41.83;;;;;;;-0.13;68.42;99427.38;2163602;82;21134;-80
2021/01/11 03:23:21;;;;;;;115.87;43.47;;;;;;;-0.09;68.54;99420.37;2164695;82;21139;-80
2021/01/11 03:26:23;;;;;;;98.57;42.00;;;;;;;-0.06;68.35;99423.13;2164410;82;21178;-80
2021/01/11 03:29:24;;;;;;;96.50;41.77;;;;;;;-0.02;68.13;99417.39;2163264;82;21146;-81
2021/01/11 03:32:26;;;;;;;92.77;40.27;;;;;;;0.02;68.12;99413.77;2158321;81;21300;-81
2021/01/11 03:35:28;;;;;;;83.47;39.23;;;;;;;0.04;68.02;99409.22;2151976;82;21150;-82
2021/01/11 03:38:29;;;;;;;81.90;39.30;;;;;;;0.04;67.55;99407.94;2153069;83;21167;-81
2021/01/11 03:41:30;;;;;;;106.00;48.57;;;;;;;-0.01;67.66;99405.44;2152231;83;21150;-82
2021/01/11 03:44:31;;;;;;;103.60;46.50;;;;;;;-0.05;67.64;99399.63;2152081;82;21484;-80
2021/01/11 03:47:32;;;;;;;102.83;41.97;;;;;;;-0.07;67.73;99396.97;2152174;83;21378;-81
2021/01/11 03:50:33;;;;;;;100.93;46.00;;;;;;;-0.11;67.54;99392.44;2152428;83;21166;-80
2021/01/11 03:53:34;;;;;;;108.83;49.20;;;;;;;-0.09;67.72;99401.12;2152473;82;21146;-80
2021/01/11 03:56:38;;;;;;;110.40;50.37;;;;;;;-0.10;67.78;99391.64;2152367;83;21135;-80
2021/01/11 03:59:39;;;;;;;110.40;50.27;;;;;;;-0.10;67.85;99389.48;2152444;82;21087;-80
2021/01/11 04:02:43;;;;;;;102.03;48.37;;;;;;;-0.11;67.77;99395.00;2152156;83;21111;-80
2021/01/11 04:05:44;;;;;;;106.93;48.47;;;;;;;-0.10;67.62;99392.92;2152779;83;21170;-80
2021/01/11 04:08:45;;;;;;;119.23;49.87;;;;;;;-0.10;67.64;99398.45;2152876;83;21733;-80
2021/01/11 04:11:46;;;;;;;97.30;44.10;;;;;;;-0.11;67.77;99400.53;2151822;83;21091;-81
2021/01/11 04:14:47;;;;;;;101.20;44.97;;;;;;;-0.14;67.52;99399.95;2152320;83;21107;-81
2021/01/11 04:17:48;;;;;;;105.57;45.60;;;;;;;-0.18;67.54;99392.84;2152624;82;21099;-81
2021/01/11 04:20:49;;;;;;;91.57;44.47;;;;;;;-0.18;67.51;99397.98;2152315;82;21138;-80
2021/01/11 04:23:50;;;;;;;124.33;58.47;;;;;;;-0.19;67.54;99403.91;2151679;83;21151;-81
2021/01/11 04:26:51;;;;;;;99.50;44.10;;;;;;;-0.18;67.42;99400.55;2151506;83;21753;-80
2021/01/11 04:29:52;;;;;;;92.30;42.83;;;;;;;-0.14;67.14;99402.91;2151722;83;21162;-81
2021/01/11 04:32:53;;;;;;;90.73;40.77;;;;;;;-0.13;67.17;99398.27;2158589;82;21170;-82
2021/01/11 04:35:55;;;;;;;82.60;40.60;;;;;;;-0.10;67.19;99398.06;2168183;82;21262;-81
2021/01/11 04:38:56;;;;;;;86.60;39.53;;;;;;;-0.06;67.03;99396.57;2167626;82;21280;-81
2021/01/11 04:41:57;;;;;;;89.53;41.00;;;;;;;-0.06;66.67;99397.45;2163392;82;21916;-82
2021/01/11 04:44:58;;;;;;;96.03;41.77;;;;;;;-0.06;66.81;99398.73;2161151;82;21684;-81
2021/01/11 04:47:59;;;;;;;88.30;40.70;;;;;;;-0.06;66.68;99391.44;2160465;82;21154;-81
2021/01/11 04:51:01;;;;;;;88.77;41.50;;;;;;;-0.03;66.45;99400.22;2159947;82;21261;-80
2021/01/11 04:54:02;;;;;;;92.50;41.20;;;;;;;-0.04;66.48;99399.72;2159149;82;21609;-79
2021/01/11 04:57:03;;;;;;;89.30;42.00;;;;;;;-0.04;66.50;99399.72;2159800;82;21261;-81
2021/01/11 05:00:04;;;;;;;96.30;42.27;;;;;;;-0.04;66.39;99399.72;2159650;82;21166;-81
2021/01/11 05:03:05;;;;;;;83.93;38.63;;;;;;;-0.03;66.25;99392.52;2160267;82;21123;-81
2021/01/11 05:06:06;;;;;;;86.00;38.17;;;;;;;-0.04;66.19;99393.70;2160928;82;21568;-82
2021/01/11 05:09:07;;;;;;;92.73;41.73;;;;;;;-0.03;66.20;99395.48;2161274;82;21147;-81
2021/01/11 05:12:08;;;;;;;90.57;41.10;;;;;;;-0.01;66.18;99390.93;2160120;82;21138;-81
2021/01/11 05:15:09;;;;;;;93.13;42.30;;;;;;;0.01;66.07;99391.06;2161448;82;21142;-81
2021/01/11 05:18:10;;;;;;;87.97;39.73;;;;;;;0.03;66.07;99385.63;2161119;82;21143;-81
2021/01/11 05:21:11;;;;;;;90.77;38.60;;;;;;;0.05;65.96;99385.72;2160946;82;21293;-81
2021/01/11 05:24:13;;;;;;;96.70;41.77;;;;;;;0.04;65.98;99386.51;2161281;82;21162;-81
2021/01/11 05:27:14;;;;;;;88.57;40.03;;;;;;;0.03;65.82;99386.91;2161760;82;21391;-81
2021/01/11 05:30:15;;;;;;;92.13;39.43;;;;;;;0.04;65.87;99391.64;2161901;82;21122;-81
2021/01/11 05:33:16;;;;;;;98.77;46.57;;;;;;;0.04;65.93;99392.53;2164276;81;21271;-81
2021/01/11 05:36:17;;;;;;;91.27;43.53;;;;;;;0.06;66.13;99390.05;2166825;82;21543;-80
2021/01/11 05:39:18;;;;;;;76.93;39.33;;;;;;;0.11;66.12;99388.27;2165499;82;21110;-81
2021/01/11 05:42:19;;;;;;;88.77;41.30;;;;;;;0.15;66.07;99390.63;2160956;82;21265;-83
2021/01/11 05:45:20;;;;;;;84.20;39.83;;;;;;;0.14;65.82;99385.88;2159803;82;21454;-80
2021/01/11 05:48:22;;;;;;;97.33;41.60;;;;;;;0.16;65.68;99391.11;2159732;82;21288;-81
2021/01/11 05:51:23;;;;;;;86.47;39.17;;;;;;;0.15;65.72;99391.91;2159292;82;21142;-79
2021/01/11 05:54:24;;;;;;;97.60;39.40;;;;;;;0.11;65.51;99389.94;2159186;82;21273;-80
2021/01/11 05:57:26;;;;;;;92.00;36.53;;;;;;;0.09;65.79;99388.97;2159112;82;21789;-82
2021/01/11 06:00:28;;;;;;;77.77;36.33;;;;;;;0.10;65.73;99395.88;2158775;82;21253;-81
2021/01/11 06:03:29;;;;;;;83.73;36.07;;;;;;;0.04;65.70;99392.53;2158885;82;21262;-79
2021/01/11 06:06:30;;;;;;;84.03;37.20;;;;;;;0.07;65.75;99396.97;2159638;82;21289;-81
2021/01/11 06:09:32;;;;;;;81.83;39.77;;;;;;;0.09;65.90;99399.23;2160052;82;21256;-81
2021/01/11 06:12:33;;;;;;;93.30;42.03;;;;;;;0.12;65.74;99401.59;2160211;82;21367;-79
2021/01/11 06:15:34;;;;;;;74.10;34.13;;;;;;;0.15;65.73;99403.06;2160500;82;21277;-79
2021/01/11 06:18:35;;;;;;;76.03;34.67;;;;;;;0.19;65.36;99400.28;2160598;82;21118;-79
2021/01/11 06:21:36;;;;;;;78.27;36.13;;;;;;;0.20;65.36;99404.63;2160064;82;21412;-79
2021/01/11 06:24:37;;;;;;;86.43;34.00;;;;;;;0.22;65.27;99406.89;2160120;82;21169;-79
2021/01/11 06:27:38;;;;;;;79.17;36.17;;;;;;;0.20;65.55;99404.23;2160943;82;21142;-78
2021/01/11 06:30:39;;;;;;;75.23;33.77;;;;;;;0.23;65.37;99404.81;2160486;82;21261;-79
2021/01/11 06:33:40;;;;;;;73.53;33.93;;;;;;;0.23;65.23;99408.27;2155231;81;21281;-80
2021/01/11 06:36:42;;;;;;;69.77;34.70;;;;;;;0.24;65.32;99410.44;2148847;82;21260;-80
2021/01/11 06:39:43;;;;;;;70.80;33.10;;;;;;;0.26;65.13;99416.55;2148471;83;21291;-80
2021/01/11 06:42:44;;;;;;;75.83;33.50;;;;;;;0.27;65.04;99417.05;2150057;83;21261;-80
2021/01/11 06:45:45;;;;;;;58.20;28.83;;;;;;;0.23;65.12;99414.69;2150495;83;21544;-80
2021/01/11 06:48:47;;;;;;;61.80;30.63;;;;;;;0.16;64.83;99407.80;2151307;83;21147;-80
2021/01/11 06:51:51;;;;;;;56.30;30.07;;;;;;;0.12;64.85;99414.42;2150900;83;21170;-79
2021/01/11 06:54:50;;;;;;;62.63;29.57;;;;;;;0.08;64.99;99411.58;2150161;83;21516;-79
2021/01/11 06:57:52;;;;;;;56.97;28.53;;;;;;;0.09;65.27;99415.91;2150209;83;21163;-80
2021/01/11 07:00:53;;;;;;;55.13;28.60;;;;;;;0.08;64.96;99419.27;2149199;83;21139;-79
2021/01/11 07:03:54;;;;;;;60.87;27.80;;;;;;;0.08;65.15;99411.58;2149186;83;21257;-78
2021/01/11 07:06:55;;;;;;;59.33;28.73;;;;;;;0.10;65.21;99421.54;2149143;83;21262;-78
2021/01/11 07:09:56;;;;;;;64.97;30.70;;;;;;;0.12;65.17;99427.26;2149073;83;21865;-79
2021/01/11 07:12:57;;;;;;;62.33;29.63;;;;;;;0.16;65.17;99420.64;2150044;83;21281;-80
2021/01/11 07:15:58;;;;;;;56.70;28.17;;;;;;;0.19;65.16;99420.82;2150024;83;21258;-79
2021/01/11 07:18:59;;;;;;;62.43;28.73;;;;;;;0.16;65.00;99425.77;2150167;83;21111;-79
2021/01/11 07:22:00;;;;;;;60.47;28.70;;;;;;;0.14;65.01;99430.81;2148797;83;21574;-79
2021/01/11 07:25:02;;;;;;;60.27;30.53;;;;;;;0.10;65.24;99430.52;2149667;82;21186;-79
2021/01/11 07:28:03;;;;;;;70.70;30.63;;;;;;;0.12;65.21;99430.22;2149408;83;21100;-79
2021/01/11 07:31:04;;;;;;;60.63;30.57;;;;;;;0.15;65.19;99429.13;2150108;83;21242;-79
2021/01/11 07:34:06;;;;;;;56.27;30.43;;;;;;;0.15;65.03;99431.70;2151573;82;21179;-78
2021/01/11 07:37:07;;;;;;;54.53;26.30;;;;;;;0.15;65.05;99431.70;2156399;82;21252;-78
2021/01/11 07:40:08;;;;;;;52.37;27.37;;;;;;;0.16;65.00;99431.79;2170062;82;21130;-78
2021/01/11 07:43:09;;;;;;;55.10;29.07;;;;;;;0.20;65.18;99436.72;2159899;82;21445;-78
2021/01/11 07:46:10;;;;;;;56.57;27.00;;;;;;;0.22;65.04;99439.88;2160680;82;21131;-78
2021/01/11 07:49:11;;;;;;;57.73;27.03;;;;;;;0.27;64.84;99442.72;2159929;82;21127;-79
2021/01/11 07:52:14;;;;;;;61.07;28.93;;;;;;;0.34;65.11;99439.73;2159371;82;21257;-79
2021/01/11 07:55:15;;;;;;;55.87;27.87;;;;;;;0.41;64.81;99435.46;2159383;82;21111;-79
2021/01/11 07:58:18;;;;;;;51.07;26.70;;;;;;;0.52;64.87;99445.10;2159178;82;21115;-78
2021/01/11 08:01:22;;;;;;;57.07;28.87;;;;;;;0.59;64.74;99443.39;2157387;82;21586;-77
2021/01/11 08:04:22;;;;;;;74.10;28.97;;;;;;;0.68;64.84;99446.91;2159085;81;21289;-81
2021/01/11 08:07:23;;;;;;;57.97;28.80;;;;;;;0.76;64.62;99441.83;2158706;82;21155;-80
2021/01/11 08:10:25;;;;;;;65.47;28.20;;;;;;;0.81;64.15;99439.14;2160584;82;21142;-80
2021/01/11 08:13:26;;;;;;;59.80;28.90;;;;;;;0.86;64.20;99445.44;2159578;82;21142;-80
2021/01/11 08:16:28;;;;;;;1995.47;137.97;;;;;;;0.89;64.06;99443.97;2159268;82;22355;-79
2021/01/11 08:19:29;;;;;;;66.17;30.17;;;;;;;0.92;64.19;99441.98;2158282;82;21706;-78
2021/01/11 08:22:30;;;;;;;64.07;30.67;;;;;;;1.02;63.79;99445.58;2157898;82;21276;-77
2021/01/11 08:25:31;;;;;;;62.80;30.77;;;;;;;1.05;63.75;99452.19;2159099;82;21310;-78
2021/01/11 08:28:32;;;;;;;78.73;28.67;;;;;;;1.04;63.45;99451.70;2158705;82;21142;-78
2021/01/11 08:31:33;;;;;;;82.90;31.70;;;;;;;1.04;63.50;99451.70;2158186;82;21611;-78
2021/01/11 08:34:35;;;;;;;80.83;28.57;;;;;;;1.08;63.50;99448.50;2163769;82;21288;-78
2021/01/11 08:37:36;;;;;;;69.23;32.53;;;;;;;1.10;63.53;99448.20;2158133;82;21103;-78
2021/01/11 08:40:38;;;;;;;69.90;32.10;;;;;;;1.17;63.65;99446.87;2158784;82;21359;-77
2021/01/11 08:43:39;;;;;;;67.87;33.37;;;;;;;1.24;63.40;99451.17;2157720;82;21568;-78
2021/01/11 08:46:40;;;;;;;55.87;30.10;;;;;;;1.30;63.09;99451.92;2158158;82;21544;-77
2021/01/11 08:49:41;;;;;;;60.90;32.47;;;;;;;1.32;62.84;99448.16;2158231;82;21288;-77
2021/01/11 08:52:42;;;;;;;55.37;30.70;;;;;;;1.31;63.00;99454.98;2157190;82;21118;-78
2021/01/11 08:55:43;;;;;;;68.60;28.97;;;;;;;1.35;62.81;99450.90;2158698;82;21257;-79
2021/01/11 08:58:44;;;;;;;49.73;26.50;;;;;;;1.39;62.54;99455.02;2159419;82;21264;-78
2021/01/11 09:01:45;;;;;;;48.00;26.10;;;;;;;1.42;62.37;99456.48;2158767;82;21119;-79
2021/01/11 09:04:47;;;;;;;50.77;27.67;;;;;;;1.48;62.12;99453.38;2158360;82;21318;-78
2021/01/11 09:07:48;;;;;;;57.97;29.33;;;;;;;1.57;62.26;99460.33;2159270;82;21297;-80
2021/01/11 09:10:49;;;;;;;55.43;30.53;;;;;;;1.65;62.08;99452.64;2158526;82;21614;-77
2021/01/11 09:13:50;;;;;;;50.07;27.43;;;;;;;1.70;61.72;99451.61;2157049;82;21312;-77
2021/01/11 09:16:51;;;;;;;46.47;27.27;;;;;;;1.71;61.76;99452.98;2156702;82;21276;-78
2021/01/11 09:19:53;;;;;;;54.13;30.37;;;;;;;1.79;61.49;99453.05;2157494;82;21265;-78
2021/01/11 09:22:54;;;;;;;53.97;30.23;;;;;;;1.83;61.66;99456.67;2157403;82;21269;-78
2021/01/11 09:25:55;;;;;;;52.90;29.77;;;;;;;1.85;61.30;99462.39;2157412;82;21297;-79
2021/01/11 09:28:56;;;;;;;64.00;33.47;;;;;;;1.90;61.54;99458.39;2158217;82;21233;-78
2021/01/11 09:31:57;;;;;;;56.00;29.97;;;;;;;2.03;61.25;99455.20;2158461;82;21264;-79
2021/01/11 09:34:58;;;;;;;53.63;30.07;;;;;;;2.12;60.89;99459.56;2150788;81;21599;-78
2021/01/11 09:38:00;;;;;;;76.13;34.07;;;;;;;2.19;60.79;99462.96;2147772;83;21273;-79
2021/01/11 09:41:01;;;;;;;63.47;33.27;;;;;;;2.25;60.59;99458.14;2148546;82;21456;-78
2021/01/11 09:44:02;;;;;;;77.80;34.37;;;;;;;2.30;60.30;99453.23;2149498;82;21135;-78
2021/01/11 09:47:05;;;;;;;69.40;33.33;;;;;;;2.28;60.47;99453.16;2148492;82;21253;-79
2021/01/11 09:50:06;;;;;;;75.13;36.90;;;;;;;2.26;60.38;99449.61;2148682;82;21284;-79
2021/01/11 09:53:08;;;;;;;71.20;36.40;;;;;;;2.15;60.56;99450.72;2149674;83;21135;-80
2021/01/11 09:56:09;;;;;;;64.27;34.57;;;;;;;2.03;60.57;99444.91;2148459;82;21262;-79
2021/01/11 09:59:10;;;;;;;69.57;35.67;;;;;;;1.83;60.67;99445.09;2148351;82;21241;-78
2021/01/11 10:02:11;;;;;;;81.27;38.10;;;;;;;1.72;61.17;99437.14;2147731;82;21284;-78
2021/01/11 10:05:12;;;;;;;70.73;35.17;;;;;;;1.73;61.41;99437.23;2149112;83;21182;-78
2021/01/11 10:08:13;;;;;;;75.60;37.63;;;;;;;1.81;61.33;99430.85;2148712;82;21265;-77
2021/01/11 10:11:14;;;;;;;72.20;39.37;;;;;;;1.83;61.36;99424.50;2148033;83;21257;-78
2021/01/11 10:14:15;;;;;;;67.03;35.90;;;;;;;1.83;61.56;99424.09;2148029;82;21729;-78
2021/01/11 10:17:17;;;;;;;63.33;35.90;;;;;;;1.84;61.47;99423.70;2148057;82;21338;-78
2021/01/11 10:20:18;;;;;;;70.17;36.70;;;;;;;1.85;61.58;99426.36;2148220;82;21261;-80
2021/01/11 10:23:19;;;;;;;68.27;37.23;;;;;;;2.02;61.86;99418.67;2148042;82;21246;-79
2021/01/11 10:26:20;;;;;;;68.83;36.33;;;;;;;2.16;61.61;99422.47;2148370;82;21301;-78
2021/01/11 10:29:21;;;;;;;72.83;36.83;;;;;;;2.27;61.43;99424.73;2148292;83;21265;-78
2021/01/11 10:32:22;;;;;;;66.20;36.43;;;;;;;2.38;61.37;99425.80;2148436;83;21245;-78
2021/01/11 10:35:23;;;;;;;74.67;38.57;;;;;;;2.41;61.26;99425.95;2160669;82;21162;-79
2021/01/11 10:38:24;;;;;;;70.33;40.63;;;;;;;2.52;61.35;99416.21;2157774;82;21249;-78
2021/01/11 10:41:25;;;;;;;78.23;41.97;;;;;;;2.62;61.13;99406.02;2158039;82;21265;-78
2021/01/11 10:44:29;;;;;;;63.43;34.50;;;;;;;2.63;60.86;99403.52;2157567;82;21308;-79
2021/01/11 10:47:30;;;;;;;72.93;36.43;;;;;;;2.65;60.96;99397.15;2157773;82;21261;-78
2021/01/11 10:50:31;;;;;;;66.43;34.93;;;;;;;2.65;61.10;99392.00;2157794;82;21261;-78
2021/01/11 10:53:32;;;;;;;68.53;37.00;;;;;;;2.72;61.12;99382.48;2158571;82;21253;-76
2021/01/11 10:56:33;;;;;;;69.43;35.27;;;;;;;2.74;61.07;99374.42;2158333;82;21249;-79
2021/01/11 10:59:35;;;;;;;76.67;37.17;;;;;;;2.82;61.19;99370.53;2158364;82;21542;-78
2021/01/11 11:02:36;;;;;;;63.83;33.67;;;;;;;2.84;61.17;99365.05;2158121;82;21273;-78
2021/01/11 11:05:37;;;;;;;64.60;33.30;;;;;;;2.87;61.07;99371.66;2137115;82;21260;-78
2021/01/11 11:08:38;;;;;;;51.63;29.47;;;;;;;2.84;60.94;99367.63;2157390;82;21269;-79
2021/01/11 11:11:39;;;;;;;63.40;32.03;;;;;;;2.83;60.89;99365.45;2157781;82;21269;-78
2021/01/11 11:14:43;;;;;;;56.63;31.70;;;;;;;2.77;60.79;99361.28;2158952;82;21914;-78
2021/01/11 11:17:44;;;;;;;70.43;34.67;;;;;;;2.80;60.87;99360.14;2158016;82;21418;-77
2021/01/11 11:20:45;;;;;;;62.70;32.70;;;;;;;2.86;60.94;99355.70;2157393;82;21267;-79
2021/01/11 11:23:46;;;;;;;64.90;30.33;;;;;;;2.87;60.66;99351.03;2157654;82;21256;-77
2021/01/11 11:26:47;;;;;;;59.97;31.63;;;;;;;2.85;60.66;99345.80;2158398;82;21284;-77
2021/01/11 11:29:48;;;;;;;64.40;34.07;;;;;;;2.86;60.73;99338.53;2158311;82;21269;-76
2021/01/11 11:32:50;;;;;;;56.93;33.20;;;;;;;2.88;60.48;99335.63;2158007;82;21256;-78
2021/01/11 11:35:51;;;;;;;63.33;33.57;;;;;;;2.90;60.68;99338.69;2168549;81;21261;-77
2021/01/11 11:38:52;;;;;;;68.23;35.77;;;;;;;2.92;60.46;99332.80;2170534;82;21269;-77
2021/01/11 11:41:53;;;;;;;68.87;34.00;;;;;;;2.96;60.32;99326.98;2161808;82;21249;-77
2021/01/11 11:44:54;;;;;;;73.70;34.97;;;;;;;2.97;60.21;99324.89;2158161;82;21903;-78
2021/01/11 11:47:55;;;;;;;62.73;32.67;;;;;;;4.00;63.64;99325.07;2157151;82;21257;-77
2021/01/11 11:50:56;;;;;;;66.67;35.20;;;;;;;4.14;59.51;99317.94;2157678;82;21075;-78
2021/01/11 11:53:57;;;;;;;53.53;31.00;;;;;;;3.90;58.79;99327.17;2158014;82;21261;-77
2021/01/11 11:56:59;;;;;;;65.70;37.10;;;;;;;3.66;58.79;99320.06;2157563;82;21618;-77
2021/01/11 12:00:00;;;;;;;67.13;37.93;;;;;;;3.39;59.04;99322.61;2157008;82;21277;-77
2021/01/11 12:03:01;;;;;;;69.27;37.37;;;;;;;3.13;59.12;99317.09;2157950;82;21150;-77
2021/01/11 12:06:02;;;;;;;80.43;38.73;;;;;;;2.96;59.32;99320.53;2158049;82;21297;-78
2021/01/11 12:09:03;;;;;;;69.83;37.17;;;;;;;2.94;59.60;99313.53;2158077;82;21269;-78
2021/01/11 12:12:04;;;;;;;85.90;42.87;;;;;;;2.95;59.48;99317.88;2157859;82;21264;-78
2021/01/11 12:15:05;;;;;;;85.07;45.90;;;;;;;2.95;59.63;99316.59;2158349;82;21139;-77
2021/01/11 12:18:07;;;;;;;84.03;42.77;;;;;;;2.95;59.58;99314.90;2157840;82;21485;-77
2021/01/11 12:21:08;;;;;;;86.97;43.30;;;;;;;2.94;59.60;99307.09;2157830;82;21889;-80
2021/01/11 12:24:09;;;;;;;202.10;48.30;;;;;;;2.83;59.81;99310.02;2157549;82;21257;-78
2021/01/11 12:27:11;;;;;;;85.70;46.33;;;;;;;2.74;59.72;99308.28;2157399;82;21646;-79
2021/01/11 12:30:12;;;;;;;79.47;40.10;;;;;;;2.71;59.74;99308.13;2157835;82;21577;-77
2021/01/11 12:33:13;;;;;;;75.57;38.87;;;;;;;2.72;59.86;99300.87;2157198;82;21256;-77
2021/01/11 12:36:14;;;;;;;80.97;34.83;;;;;;;2.74;59.44;99298.38;2166146;81;21293;-78
2021/01/11 12:39:15;;;;;;;66.10;36.23;;;;;;;2.65;59.39;99299.20;2169842;82;21244;-78
2021/01/11 12:42:16;;;;;;;74.33;36.80;;;;;;;2.63;59.88;99293.09;2165091;81;21586;-76
2021/01/11 12:45:17;;;;;;;63.77;32.87;;;;;;;2.55;59.40;99300.41;2158294;82;21304;-76
2021/01/11 12:48:19;;;;;;;70.60;32.37;;;;;;;2.49;58.75;99296.23;2156899;82;21139;-77
2021/01/11 12:51:20;;;;;;;60.93;29.47;;;;;;;2.42;58.78;99289.88;2156798;82;21284;-76
2021/01/11 12:54:21;;;;;;;56.20;28.47;;;;;;;2.34;58.75;99287.72;2155848;82;21265;-77
2021/01/11 12:57:22;;;;;;;73.97;34.50;;;;;;;2.37;58.36;99287.88;2157166;82;21253;-76
2021/01/11 13:00:23;;;;;;;66.53;32.43;;;;;;;2.39;59.15;99284.97;2155598;82;21273;-77
2021/01/11 13:03:24;;;;;;;59.13;32.23;;;;;;;2.45;58.48;99281.02;2155926;82;21941;-78
2021/01/11 13:06:25;;;;;;;57.67;30.53;;;;;;;2.56;58.69;99278.98;2155641;82;21300;-77
2021/01/11 13:09:26;;;;;;;71.77;34.53;;;;;;;2.66;58.30;99270.05;2155768;82;21280;-78
2021/01/11 13:12:28;;;;;;;75.90;37.87;;;;;;;2.78;58.46;99270.64;2156733;82;21263;-78
2021/01/11 13:15:29;;;;;;;78.87;36.20;;;;;;;2.94;58.47;99265.42;2157912;82;21253;-77
2021/01/11 13:18:30;;;;;;;68.23;35.30;;;;;;;3.11;57.43;99269.70;2157547;82;21245;-76
2021/01/11 13:21:31;;;;;;;73.87;37.30;;;;;;;3.15;57.41;99267.74;2157305;82;21280;-78
2021/01/11 13:24:32;;;;;;;89.80;42.07;;;;;;;3.18;57.36;99263.13;2157881;82;21309;-77
2021/01/11 13:27:33;;;;;;;87.87;43.33;;;;;;;3.18;57.89;99254.98;2158391;82;21241;-77
2021/01/11 13:30:37;;;;;;;82.50;38.17;;;;;;;3.09;58.06;99258.42;2158364;82;21249;-78
2021/01/11 13:33:38;;;;;;;76.10;38.47;;;;;;;2.96;57.67;99257.77;2157912;82;21253;-77
2021/01/11 13:36:39;;;;;;;84.23;40.40;;;;;;;2.77;57.64;99261.14;2156805;82;21917;-77
2021/01/11 13:39:40;;;;;;;92.30;40.77;;;;;;;2.65;58.07;99261.83;2156488;82;21122;-76
2021/01/11 13:42:42;;;;;;;75.10;38.60;;;;;;;2.53;58.40;99263.36;2157701;82;21831;-76
2021/01/11 13:45:43;;;;;;;84.87;41.43;;;;;;;2.43;58.79;99258.16;2157755;82;22049;-77
2021/01/11 13:48:44;;;;;;;90.93;42.20;;;;;;;2.31;59.28;99261.40;2157471;82;21107;-77
2021/01/11 13:51:45;;;;;;;93.40;43.57;;;;;;;2.22;59.51;99261.81;2157089;82;21272;-77
2021/01/11 13:54:46;;;;;;;91.90;43.73;;;;;;;2.14;59.55;99257.97;2158034;82;21249;-77
2021/01/11 13:57:47;;;;;;;100.23;45.73;;;;;;;2.01;59.80;99264.98;2158916;82;21288;-76